createdAt,value
2023-01-26T00:01:20.822Z,-0.20
2023-01-26T00:03:48.102Z,-0.20
2023-01-26T00:06:18.719Z,-0.20
2023-01-26T00:08:52.492Z,-0.20
2023-01-26T00:11:26.772Z,-0.20
2023-01-26T00:13:54.771Z,-0.40
2023-01-26T00:16:22.041Z,-0.30
2023-01-26T00:18:49.027Z,-0.30
2023-01-26T00:21:18.282Z,-0.40
2023-01-26T00:23:46.227Z,-0.50
2023-01-26T00:26:19.343Z,-0.60
2023-01-26T00:28:46.998Z,-0.60
2023-01-26T00:31:17.392Z,-0.70
2023-01-26T00:33:44.458Z,-0.80
2023-01-26T00:36:11.990Z,-0.80
2023-01-26T00:38:41.046Z,-0.80
2023-01-26T00:41:09.456Z,-0.90
2023-01-26T00:43:36.358Z,-1.00
2023-01-26T00:46:03.630Z,-1.00
2023-01-26T00:48:30.591Z,-1.00
2023-01-26T00:50:57.496Z,-1.00
2023-01-26T00:53:26.985Z,-1.00
2023-01-26T00:55:56.041Z,-1.00
2023-01-26T00:58:22.942Z,-1.00
2023-01-26T01:00:49.926Z,-0.90
2023-01-26T01:03:16.867Z,-0.80
2023-01-26T01:05:47.450Z,-0.70
2023-01-26T01:08:14.366Z,-0.90
2023-01-26T01:10:41.297Z,-0.90
2023-01-26T01:13:08.256Z,-0.80
2023-01-26T01:15:35.170Z,-0.70
2023-01-26T01:18:02.025Z,-0.70
2023-01-26T01:20:29.999Z,-0.60
2023-01-26T01:22:56.855Z,-0.60
2023-01-26T01:25:23.794Z,-0.60
2023-01-26T01:27:50.702Z,-0.70
2023-01-26T01:30:17.872Z,-0.80
2023-01-26T01:32:44.982Z,-0.80
2023-01-26T01:35:11.961Z,-0.80
2023-01-26T01:37:38.932Z,-0.80
2023-01-26T01:40:06.689Z,-0.70
2023-01-26T01:42:34.352Z,-0.70
2023-01-26T01:45:26.234Z,-0.70
2023-01-26T01:47:56.078Z,-0.70
2023-01-26T01:50:24.896Z,-0.60
2023-01-26T01:52:53.861Z,-0.60
2023-01-26T01:55:20.905Z,-0.70
2023-01-26T01:57:54.850Z,-0.70
2023-01-26T02:00:24.923Z,-0.80
2023-01-26T02:03:19.138Z,-0.70
2023-01-26T02:06:13.202Z,1.20
2023-01-26T02:08:45.105Z,-0.70
2023-01-26T02:11:17.327Z,-0.70
2023-01-26T02:13:47.341Z,-0.60
2023-01-26T02:16:14.443Z,-0.70
2023-01-26T02:18:41.720Z,-0.70
2023-01-26T02:21:11.599Z,-0.60
2023-01-26T02:24:04.296Z,-0.70
2023-01-26T02:26:33.864Z,-0.50
2023-01-26T02:29:02.983Z,-0.50
2023-01-26T02:31:30.916Z,-0.50
2023-01-26T02:33:58.323Z,-0.50
2023-01-26T02:36:34.860Z,-0.50
2023-01-26T02:39:35.423Z,-0.60
2023-01-26T02:42:20.659Z,-0.60
2023-01-26T02:44:47.691Z,-0.40
2023-01-26T02:51:05.480Z,-0.40
2023-01-26T02:53:33.564Z,-0.40
2023-01-26T02:56:01.196Z,-0.30
2023-01-26T02:58:28.250Z,-0.30
2023-01-26T03:00:55.294Z,-0.30
2023-01-26T03:03:44.166Z,-0.40
2023-01-26T03:06:12.715Z,-0.40
2023-01-26T03:08:39.969Z,-0.40
2023-01-26T03:11:08.445Z,-0.40
2023-01-26T03:13:36.051Z,-0.40
2023-01-26T03:16:07.397Z,-0.40
2023-01-26T03:18:54.069Z,-0.30
2023-01-26T03:21:42.523Z,-0.30
2023-01-26T03:24:31.912Z,-0.30
2023-01-26T03:27:19.403Z,-0.30
2023-01-26T03:29:46.652Z,-0.30
2023-01-26T03:32:14.245Z,-0.30
2023-01-26T03:34:42.685Z,-0.30
2023-01-26T03:37:10.055Z,-0.30
2023-01-26T03:40:06.890Z,-0.20
2023-01-26T03:42:54.802Z,-0.20
2023-01-26T03:45:40.696Z,-0.10
2023-01-26T03:48:29.195Z,-0.10
2023-01-26T03:51:15.572Z,-0.20
2023-01-26T03:54:02.293Z,-0.10
2023-01-26T03:56:33.059Z,-0.10
2023-01-26T03:59:09.391Z,-0.10
2023-01-26T04:01:41.447Z,-0.10
2023-01-26T04:04:27.530Z,-0.10
2023-01-26T04:07:13.830Z,-0.10
2023-01-26T04:09:45.866Z,-0.10
2023-01-26T04:12:14.128Z,-0.10
2023-01-26T04:15:30.020Z,-0.10
2023-01-26T04:18:15.430Z,-0.10
2023-01-26T04:21:00.899Z,-0.10
2023-01-26T04:23:28.028Z,-0.10
2023-01-26T04:25:55.669Z,-0.10
2023-01-26T04:28:23.195Z,-0.10
2023-01-26T04:30:51.782Z,-0.10
2023-01-26T04:33:18.610Z,-0.10
2023-01-26T04:35:45.516Z,-0.10
2023-01-26T04:38:12.579Z,-0.10
2023-01-26T04:40:41.675Z,0.00
2023-01-26T04:43:09.146Z,-0.10
2023-01-26T04:45:36.887Z,-0.10
2023-01-26T04:48:03.961Z,-0.10
2023-01-26T04:50:31.435Z,-0.10
2023-01-26T04:52:59.164Z,-0.10
2023-01-26T04:55:26.254Z,-0.10
2023-01-26T04:57:53.263Z,-0.10
2023-01-26T05:00:20.617Z,-0.10
2023-01-26T05:02:47.519Z,-0.10
2023-01-26T05:05:14.999Z,-0.10
2023-01-26T05:07:42.317Z,0.00
2023-01-26T05:10:11.040Z,-0.10
2023-01-26T05:12:57.668Z,-0.10
2023-01-26T05:15:41.910Z,-0.10
2023-01-26T05:18:25.355Z,-0.10
2023-01-26T05:21:04.593Z,0.00
2023-01-26T05:23:40.477Z,-0.10
2023-01-26T05:26:30.152Z,-0.10
2023-01-26T05:29:01.091Z,-0.10
2023-01-26T05:31:28.186Z,-0.10
2023-01-26T05:33:55.694Z,-0.10
2023-01-26T05:36:24.203Z,-0.10
2023-01-26T05:38:51.324Z,0.00
2023-01-26T05:41:22.766Z,-0.10
2023-01-26T05:44:12.758Z,-0.10
2023-01-26T05:46:46.250Z,-0.10
2023-01-26T05:49:13.135Z,-0.10
2023-01-26T05:51:40.998Z,0.00
2023-01-26T05:54:07.984Z,0.00
2023-01-26T05:56:35.299Z,0.00
2023-01-26T05:59:04.587Z,-0.10
2023-01-26T06:01:31.649Z,-0.10
2023-01-26T06:04:02.419Z,0.00
2023-01-26T06:06:37.123Z,0.00
2023-01-26T06:09:21.037Z,-0.10
2023-01-26T06:12:04.377Z,0.00
2023-01-26T06:14:47.451Z,0.00
2023-01-26T06:17:16.727Z,-0.10
2023-01-26T06:19:44.676Z,-0.10
2023-01-26T06:22:13.758Z,0.00
2023-01-26T06:24:45.248Z,0.00
2023-01-26T06:27:16.713Z,0.00
2023-01-26T06:29:45.757Z,0.00
2023-01-26T06:32:14.440Z,0.00
2023-01-26T06:34:43.177Z,0.00
2023-01-26T06:37:10.758Z,0.00
2023-01-26T06:39:44.137Z,0.00
2023-01-26T06:42:12.995Z,0.10
2023-01-26T06:44:39.938Z,0.10
2023-01-26T06:47:07.747Z,0.00
2023-01-26T06:49:35.603Z,0.00
2023-01-26T06:52:26.554Z,0.00
2023-01-26T06:54:59.632Z,0.00
2023-01-26T06:58:04.832Z,0.00
2023-01-26T07:00:52.746Z,0.00
2023-01-26T07:03:39.852Z,0.00
2023-01-26T07:06:07.952Z,0.00
2023-01-26T07:08:34.767Z,0.00
2023-01-26T07:11:01.605Z,0.00
2023-01-26T07:13:28.557Z,0.00
2023-01-26T07:16:02.665Z,0.10
2023-01-26T07:18:29.752Z,0.10
2023-01-26T07:21:01.592Z,0.10
2023-01-26T07:23:28.889Z,0.10
2023-01-26T07:25:55.736Z,0.10
2023-01-26T07:28:22.580Z,0.00
2023-01-26T07:30:49.441Z,-0.10
2023-01-26T07:33:16.382Z,-0.10
2023-01-26T07:35:43.269Z,-0.10
2023-01-26T07:38:10.455Z,-0.10
2023-01-26T07:40:38.823Z,-0.10
2023-01-26T07:43:05.731Z,-0.10
2023-01-26T07:45:53.931Z,-0.10
2023-01-26T07:48:22.969Z,-0.10
2023-01-26T07:50:50.433Z,0.00
2023-01-26T07:53:23.077Z,-0.10
2023-01-26T07:55:50.222Z,-0.10
2023-01-26T07:58:18.588Z,-0.10
2023-01-26T08:00:47.380Z,0.00
2023-01-26T08:03:14.606Z,0.00
2023-01-26T08:05:44.733Z,0.00
2023-01-26T08:08:11.904Z,0.00
2023-01-26T08:10:38.909Z,0.10
2023-01-26T08:13:05.845Z,0.10
2023-01-26T08:15:32.847Z,0.10
2023-01-26T08:18:03.561Z,0.20
2023-01-26T08:20:31.014Z,0.20
2023-01-26T08:22:59.689Z,0.10
2023-01-26T08:25:27.355Z,0.10
2023-01-26T08:27:55.233Z,0.10
2023-01-26T08:30:22.126Z,0.20
2023-01-26T08:32:49.088Z,0.30
2023-01-26T08:35:16.068Z,0.30
2023-01-26T08:37:43.025Z,0.40
2023-01-26T08:40:10.978Z,0.40
2023-01-26T08:42:38.074Z,0.40
2023-01-26T08:45:05.226Z,0.40
2023-01-26T08:47:32.185Z,0.50
2023-01-26T08:49:59.110Z,0.50
2023-01-26T08:52:25.971Z,0.50
2023-01-26T08:54:52.911Z,0.50
2023-01-26T08:57:19.899Z,0.50
2023-01-26T08:59:46.864Z,0.60
2023-01-26T09:02:13.886Z,0.70
2023-01-26T09:04:40.883Z,0.70
2023-01-26T09:07:07.854Z,0.70
2023-01-26T09:09:34.800Z,0.70
2023-01-26T09:12:01.781Z,0.80
2023-01-26T09:14:28.895Z,0.80
2023-01-26T09:16:56.163Z,0.90
2023-01-26T09:19:23.139Z,0.90
2023-01-26T09:21:54.319Z,0.90
2023-01-26T09:24:22.203Z,1.00
2023-01-26T09:26:49.170Z,1.10
2023-01-26T09:29:16.692Z,0.90
2023-01-26T09:31:43.815Z,0.90
2023-01-26T09:34:10.843Z,1.00
2023-01-26T09:36:39.786Z,1.00
2023-01-26T09:39:08.519Z,1.00
2023-01-26T09:41:54.062Z,1.10
2023-01-26T09:44:25.180Z,1.10
2023-01-26T09:47:31.310Z,1.20
2023-01-26T09:50:15.989Z,1.20
2023-01-26T09:53:05.142Z,1.10
2023-01-26T09:55:32.193Z,1.10
2023-01-26T09:58:15.683Z,1.20
2023-01-26T10:00:57.142Z,1.20
2023-01-26T10:03:39.518Z,1.20
2023-01-26T10:06:21.670Z,1.20
2023-01-26T10:09:29.787Z,1.30
2023-01-26T10:11:59.949Z,1.40
2023-01-26T10:14:45.489Z,1.30
2023-01-26T10:17:27.365Z,1.40
2023-01-26T10:20:06.686Z,1.40
2023-01-26T10:22:40.290Z,1.40
2023-01-26T10:25:21.042Z,1.30
2023-01-26T10:27:48.084Z,1.40
2023-01-26T10:30:17.272Z,1.40
2023-01-26T10:32:46.201Z,1.40
2023-01-26T10:35:22.654Z,1.40
2023-01-26T10:37:52.830Z,1.40
2023-01-26T10:40:20.527Z,1.40
2023-01-26T10:42:59.052Z,1.50
2023-01-26T10:45:31.881Z,1.50
2023-01-26T10:48:16.174Z,1.60
2023-01-26T10:50:43.194Z,1.60
2023-01-26T10:53:17.555Z,1.60
2023-01-26T10:55:57.734Z,1.50
2023-01-26T10:58:46.458Z,1.30
2023-01-26T11:01:16.060Z,1.40
2023-01-26T11:03:55.130Z,1.40
2023-01-26T11:06:28.935Z,1.50
2023-01-26T11:09:27.795Z,1.60
2023-01-26T11:11:57.772Z,1.60
2023-01-26T11:14:25.205Z,1.60
2023-01-26T11:17:10.165Z,1.60
2023-01-26T11:19:49.026Z,1.70
2023-01-26T11:22:54.471Z,1.80
2023-01-26T11:25:39.268Z,1.80
2023-01-26T11:28:40.965Z,1.90
2023-01-26T11:31:19.938Z,1.90
2023-01-26T11:34:02.042Z,1.90
2023-01-26T11:37:02.883Z,1.90
2023-01-26T11:39:44.892Z,1.90
2023-01-26T11:42:38.134Z,1.90
2023-01-26T11:45:18.039Z,2.00
2023-01-26T11:47:48.088Z,2.10
2023-01-26T11:50:30.706Z,2.00
2023-01-26T11:53:43.364Z,2.10
2023-01-26T11:56:18.636Z,2.10
2023-01-26T11:58:57.862Z,2.10
2023-01-26T12:01:43.515Z,2.10
2023-01-26T12:04:21.708Z,2.10
2023-01-26T12:07:06.648Z,2.00
2023-01-26T12:10:02.561Z,2.00
2023-01-26T12:12:43.208Z,2.00
2023-01-26T12:15:29.784Z,1.90
2023-01-26T12:18:29.888Z,1.90
2023-01-26T12:21:08.679Z,1.90
2023-01-26T12:24:02.468Z,1.90
2023-01-26T12:26:33.757Z,1.90
2023-01-26T12:29:26.147Z,1.80
2023-01-26T12:32:04.007Z,1.90
2023-01-26T12:34:33.899Z,1.90
2023-01-26T12:37:32.939Z,1.90
2023-01-26T12:40:07.442Z,1.90
2023-01-26T12:42:42.510Z,1.90
2023-01-26T12:45:19.980Z,1.90
2023-01-26T12:47:55.555Z,2.00
2023-01-26T12:50:28.146Z,2.10
2023-01-26T12:53:13.773Z,2.10
2023-01-26T12:55:53.015Z,2.10
2023-01-26T12:58:31.754Z,2.10
2023-01-26T13:01:20.391Z,2.10
2023-01-26T13:04:12.748Z,2.20
2023-01-26T13:06:39.758Z,2.20
2023-01-26T13:09:32.703Z,2.30
2023-01-26T13:12:00.370Z,2.30
2023-01-26T13:14:43.632Z,2.30
2023-01-26T13:17:16.602Z,2.30
2023-01-26T13:19:43.504Z,2.30
2023-01-26T13:22:19.751Z,2.30
2023-01-26T13:24:49.113Z,2.30
2023-01-26T13:27:40.716Z,2.20
2023-01-26T13:30:26.015Z,2.20
2023-01-26T13:33:23.859Z,2.20
2023-01-26T13:35:53.555Z,2.20
2023-01-26T13:38:43.564Z,2.20
2023-01-26T13:41:18.384Z,2.20
2023-01-26T13:44:23.748Z,2.10
2023-01-26T13:46:58.441Z,2.10
2023-01-26T13:49:50.776Z,2.10
2023-01-26T13:52:19.075Z,2.10
2023-01-26T13:54:47.646Z,2.00
2023-01-26T13:57:30.764Z,2.00
2023-01-26T14:00:01.653Z,2.00
2023-01-26T14:02:35.607Z,2.00
2023-01-26T14:05:03.428Z,2.00
2023-01-26T14:15:45.321Z,2.00
2023-01-26T14:18:22.547Z,2.10
2023-01-26T14:20:49.529Z,2.10
2023-01-26T14:23:19.546Z,2.10
2023-01-26T14:25:57.534Z,2.10
2023-01-26T14:28:31.145Z,2.00
2023-01-26T14:31:13.313Z,2.00
2023-01-26T14:33:43.217Z,2.00
2023-01-26T14:36:19.806Z,2.00
2023-01-26T14:38:48.891Z,2.00
2023-01-26T14:41:22.850Z,2.00
2023-01-26T14:43:56.568Z,2.00
2023-01-26T14:46:49.981Z,2.00
2023-01-26T14:49:25.924Z,2.00
2023-01-26T14:51:58.411Z,2.00
2023-01-26T14:54:29.935Z,2.00
2023-01-26T14:56:59.888Z,2.00
2023-01-26T22:17:04.697Z,2.50
2023-01-26T22:19:31.887Z,2.60
2023-01-26T22:21:58.843Z,2.60
2023-01-26T22:24:25.933Z,2.50
2023-01-26T22:26:52.946Z,2.60
2023-01-26T22:29:45.231Z,2.60
2023-01-26T22:32:12.334Z,2.60
2023-01-26T22:34:39.322Z,2.60
2023-01-26T22:37:06.298Z,2.60
2023-01-26T22:39:33.323Z,2.60
2023-01-26T22:42:00.381Z,2.60
2023-01-26T22:44:27.441Z,2.60
2023-01-26T22:46:54.510Z,2.70
2023-01-26T22:49:21.495Z,2.70
2023-01-26T22:51:48.502Z,2.70
2023-01-26T22:54:15.529Z,2.70
2023-01-26T22:56:42.440Z,2.80
2023-01-26T22:59:09.533Z,2.70
2023-01-26T23:01:36.535Z,2.80
2023-01-26T23:04:03.591Z,2.80
2023-01-26T23:06:30.756Z,2.80
2023-01-26T23:09:02.245Z,2.80
2023-01-26T23:11:30.118Z,2.80
2023-01-26T23:13:58.821Z,2.90
2023-01-26T23:16:26.283Z,2.90
2023-01-26T23:18:55.547Z,2.90
2023-01-26T23:21:23.672Z,2.90
2023-01-26T23:23:50.624Z,2.90
2023-01-26T23:26:18.175Z,2.90
2023-01-26T23:28:45.215Z,3.00
2023-01-26T23:31:13.894Z,2.90
2023-01-26T23:33:41.227Z,3.00
2023-01-26T23:36:09.772Z,3.00
2023-01-26T23:38:36.737Z,3.00
2023-01-26T23:41:08.531Z,3.00
2023-01-26T23:43:35.619Z,3.10
2023-01-26T23:46:03.285Z,3.10
2023-01-26T23:48:30.397Z,3.10
2023-01-26T23:51:02.220Z,3.10
2023-01-26T23:53:30.682Z,3.20
2023-01-26T23:55:59.629Z,3.20
2023-01-26T23:58:26.694Z,3.20
